.
WxDataArchive / Data Records for 2015-12-08
2015-12-07 December 2015 2015-12-09

Data Records for Tuesday, 08 December 2015

Time	Temp	Chill	HIndex	Humid	Dewpt	 Wind 	HiWind	WindDir	Rain 	Barom
-----	----	-----	------	-----	-----	------	------	-------	-----	-----
00:00	38.0	38.0	38.0	90	35.3	0	0	---	0.00	30.103 
00:05	38.0	38.0	38.0	90	35.3	0	2	248	0.00	30.103 
00:10	38.2	38.2	38.2	90	35.5	0	2	248	0.00	30.103 
00:15	38.2	38.2	38.2	90	35.5	0	1	248	0.00	30.099 
00:20	38.2	38.2	38.2	90	35.5	0	1	248	0.00	30.099 
00:25	38.2	38.2	38.2	90	35.5	0	0	---	0.00	30.099 
00:30	38.2	38.2	38.2	90	35.5	0	0	---	0.00	30.086 
00:35	38.2	38.2	38.2	90	35.5	0	0	---	0.00	30.086 
00:40	38.0	38.0	38.0	90	35.3	0	0	---	0.00	30.086 
00:45	38.0	38.0	38.0	90	35.3	0	0	---	0.00	30.083 
00:50	38.0	38.0	38.0	91	35.6	0	0	---	0.00	30.083 
00:55	38.0	38.0	38.0	91	35.6	0	1	248	0.00	30.083 
01:00	38.2	38.2	38.2	91	35.8	0	1	248	0.00	30.082 
01:05	38.2	38.2	38.2	91	35.8	0	1	248	0.00	30.082 
01:10	38.2	38.2	38.2	91	35.8	0	1	248	0.00	30.082 
01:15	38.3	38.3	38.3	91	35.9	0	0	---	0.00	30.073 
01:20	38.3	38.3	38.3	91	35.9	0	0	---	0.00	30.073 
01:25	38.3	38.3	38.3	91	35.9	0	2	248	0.00	30.073 
01:30	38.3	38.3	38.3	91	35.9	0	1	248	0.00	30.066 
01:35	38.3	38.3	38.3	91	35.9	0	1	248	0.00	30.066 
01:40	38.3	38.3	38.3	91	35.9	0	2	225	0.00	30.066 
01:45	38.3	38.3	38.3	91	35.9	0	2	135	0.00	30.051 
01:50	38.3	38.3	38.3	91	35.9	0	4	112	0.00	30.051 
01:55	38.3	38.3	38.3	92	36.2	0	1	112	0.00	30.051 
02:00	38.3	38.3	38.3	92	36.2	1	2	112	0.00	30.039 
02:05	38.3	38.3	38.3	92	36.2	1	3	112	0.00	30.039 
02:10	38.3	38.3	38.3	92	36.2	0	3	135	0.00	30.039 
02:15	38.3	38.3	38.3	92	36.2	0	0	---	0.00	30.058 
02:20	38.3	38.3	38.3	92	36.2	0	1	135	0.00	30.058 
02:25	38.5	38.5	38.5	92	36.4	0	1	135	0.00	30.058 
02:30	38.5	38.5	38.5	92	36.4	0	1	135	0.00	30.066 
02:35	38.5	38.5	38.5	92	36.4	0	1	135	0.00	30.066 
02:40	38.5	38.5	38.5	92	36.4	0	2	135	0.00	30.066 
02:45	38.6	38.6	38.6	92	36.5	0	1	135	0.00	30.067 
02:50	38.6	38.6	38.6	92	36.5	0	2	135	0.00	30.067 
02:55	38.6	38.6	38.6	92	36.5	0	0	---	0.00	30.067 
03:00	38.8	38.8	38.8	92	36.7	0	1	135	0.00	30.071 
03:05	38.8	38.8	38.8	92	36.7	0	1	135	0.00	30.071 
03:10	38.8	38.8	38.8	92	36.7	0	1	135	0.00	30.071 
03:15	38.9	38.9	38.9	92	36.8	0	1	135	0.00	30.064 
03:20	38.9	38.9	38.9	92	36.8	0	0	---	0.00	30.064 
03:25	38.9	38.9	38.9	92	36.8	0	2	135	0.00	30.064 
03:30	39.1	39.1	39.1	92	37.0	0	2	135	0.00	30.065 
03:35	39.1	39.1	39.1	92	37.0	0	1	135	0.00	30.065 
03:40	39.1	39.1	39.1	92	37.0	0	1	135	0.00	30.065 
03:45	39.2	39.2	39.2	92	37.1	0	3	135	0.00	30.058 
03:50	39.2	39.2	39.2	92	37.1	0	2	135	0.00	30.058 
03:55	39.2	39.2	39.2	92	37.1	0	0	---	0.00	30.058 
04:00	39.2	39.2	39.2	92	37.1	0	0	---	0.00	30.050 
04:05	39.3	39.3	39.3	92	37.2	0	1	135	0.00	30.050 
04:10	39.3	39.3	39.3	92	37.2	0	1	135	0.00	30.050 
04:15	39.3	39.3	39.3	92	37.2	0	2	135	0.00	30.041 
04:20	39.3	39.3	39.3	92	37.2	0	4	90	0.00	30.041 
04:25	39.5	39.5	39.5	92	37.4	0	1	90	0.00	30.041 
04:30	39.5	39.5	39.5	92	37.4	0	2	90	0.00	30.031 
04:35	39.5	39.5	39.5	92	37.4	0	2	90	0.00	30.031 
04:40	39.5	39.5	39.5	92	37.4	0	0	---	0.00	30.031 
04:45	39.5	39.5	39.5	92	37.4	0	1	90	0.00	30.024 
04:50	39.5	39.5	39.5	92	37.4	0	1	90	0.00	30.024 
04:55	39.5	39.5	39.5	92	37.4	0	1	90	0.00	30.024 
05:00	39.5	39.5	39.5	92	37.4	0	3	90	0.00	30.023 
05:05	39.5	39.5	39.5	92	37.4	0	2	90	0.00	30.023 
05:10	39.5	39.5	39.5	92	37.4	0	2	338	0.00	30.023 
05:15	39.6	39.6	39.6	92	37.5	0	1	338	0.00	30.035 
05:20	39.6	39.6	39.6	92	37.5	0	1	315	0.00	30.035 
05:25	39.6	39.6	39.6	92	37.5	0	4	315	0.00	30.035 
05:30	39.6	39.6	39.6	92	37.5	1	5	248	0.00	30.034 
05:35	39.8	39.8	39.8	92	37.7	0	1	270	0.00	30.034 
05:40	39.8	39.8	39.8	91	37.4	0	1	270	0.00	30.034 
05:45	39.8	39.8	39.8	91	37.4	0	2	135	0.00	30.029 
05:50	39.8	39.8	39.8	91	37.4	0	3	292	0.00	30.029 
05:55	39.8	39.8	39.8	91	37.4	1	4	248	0.00	30.029 
06:00	39.8	39.8	39.8	91	37.4	0	1	248	0.00	30.029 
06:05	39.8	39.8	39.8	90	37.1	1	3	248	0.00	30.029 
06:10	39.8	39.8	39.8	90	37.1	1	4	248	0.00	30.029 
06:15	39.8	39.8	39.8	90	37.1	0	3	248	0.00	30.033 
06:20	39.8	39.8	39.8	90	37.1	0	3	248	0.00	30.033 
06:25	39.8	39.8	39.8	89	36.8	0	2	248	0.00	30.033 
06:30	39.8	39.8	39.8	89	36.8	0	3	248	0.00	30.033 
06:35	39.8	39.8	39.8	89	36.8	0	3	68	0.00	30.033 
06:40	39.8	39.8	39.8	89	36.8	0	3	315	0.00	30.033 
06:45	39.8	39.8	39.8	89	36.8	0	3	270	0.00	30.034 
06:50	39.8	39.8	39.8	89	36.8	0	2	225	0.00	30.034 
06:55	39.8	39.8	39.8	89	36.8	0	3	225	0.00	30.034 
07:00	39.8	39.8	39.8	89	36.8	0	1	225	0.00	30.031 
07:05	39.8	39.8	39.8	89	36.8	0	2	225	0.00	30.031 
07:10	39.8	39.8	39.8	89	36.8	0	1	225	0.00	30.031 
07:15	39.8	39.8	39.8	89	36.8	0	3	225	0.00	30.029 
07:20	39.6	39.6	39.6	89	36.6	0	2	225	0.00	30.029 
07:25	39.6	39.6	39.6	88	36.3	0	1	225	0.00	30.029 
07:30	39.6	39.6	39.6	88	36.3	0	2	225	0.00	30.027 
07:35	39.6	39.6	39.6	88	36.3	0	3	135	0.00	30.027 
07:40	39.6	39.6	39.6	88	36.3	0	1	135	0.00	30.027 
07:45	39.6	39.6	39.6	88	36.3	0	1	135	0.00	30.026 
07:50	39.6	39.6	39.6	88	36.3	0	1	135	0.00	30.026 
07:55	39.5	39.5	39.5	88	36.2	0	1	135	0.00	30.026 
08:00	39.5	39.5	39.5	88	36.2	0	2	135	0.00	30.022 
08:05	39.5	39.5	39.5	88	36.2	0	1	135	0.00	30.022 
08:10	39.5	39.5	39.5	88	36.2	0	1	135	0.00	30.022 
08:15	39.5	39.5	39.5	88	36.2	0	1	135	0.00	30.023 
08:20	39.5	39.5	39.5	88	36.2	0	4	135	0.00	30.023 
08:25	39.5	39.5	39.5	88	36.2	0	2	248	0.00	30.023 
08:30	39.5	39.5	39.5	87	36.0	0	1	248	0.00	30.028 
08:35	39.6	39.6	39.6	87	36.1	0	1	248	0.00	30.028 
08:40	39.6	39.6	39.6	87	36.1	0	2	248	0.00	30.028 
08:45	39.6	39.6	39.6	87	36.1	0	2	248	0.00	30.026 
08:50	39.6	39.6	39.6	86	35.8	0	2	248	0.00	30.026 
08:55	39.6	39.6	39.6	86	35.8	0	2	248	0.00	30.026 
09:00	39.6	39.6	39.6	86	35.8	0	3	248	0.00	30.024 
09:05	39.6	39.6	39.6	86	35.8	0	3	248	0.00	30.024 
09:10	39.6	39.6	39.6	86	35.8	0	2	248	0.00	30.024 
09:15	39.6	39.6	39.6	85	35.5	0	2	248	0.00	30.015 
09:20	39.6	39.6	39.6	85	35.5	0	2	248	0.00	30.015 
09:25	39.6	39.6	39.6	85	35.5	1	3	248	0.00	30.015 
09:30	39.8	39.8	39.8	86	36.0	0	2	68	0.00	30.016 
09:35	39.8	39.8	39.8	85	35.7	0	1	68	0.00	30.016 
09:40	39.8	39.8	39.8	85	35.7	0	4	90	0.00	30.016 
09:45	39.8	39.8	39.8	85	35.7	0	3	292	0.00	30.016 
09:50	39.8	39.8	39.8	85	35.7	0	3	248	0.00	30.016 
09:55	39.9	39.9	39.9	86	36.1	0	4	68	0.00	30.016 
10:00	39.9	39.9	39.9	86	36.1	0	2	270	0.00	30.018 
10:05	39.9	39.9	39.9	85	35.8	1	3	248	0.00	30.018 
10:10	39.9	39.9	39.9	85	35.8	0	2	248	0.00	30.018 
10:15	40.1	40.1	40.1	85	36.0	0	3	248	0.00	30.015 
10:20	40.1	40.1	40.1	85	36.0	0	1	248	0.00	30.015 
10:25	40.1	40.1	40.1	84	35.7	1	4	248	0.00	30.015 
10:30	40.1	40.1	40.1	84	35.7	0	2	248	0.00	30.011 
10:35	40.2	40.2	40.2	85	36.1	0	3	248	0.00	30.011 
10:40	40.5	40.5	40.5	85	36.4	0	4	270	0.00	30.011 
10:45	40.5	40.5	40.5	85	36.4	1	5	90	0.00	30.011 
10:50	40.5	40.5	40.5	84	36.1	0	2	112	0.00	30.011 
10:55	40.5	40.5	40.5	84	36.1	0	3	112	0.00	30.011 
11:00	40.2	40.2	40.2	84	35.8	1	4	112	0.00	30.011 
11:05	40.1	40.1	40.1	84	35.7	1	4	248	0.00	30.011 
11:10	40.2	40.2	40.2	84	35.8	0	1	248	0.00	30.011 
11:15	40.5	40.5	40.5	84	36.1	1	6	248	0.00	30.008 
11:20	40.6	40.6	40.6	84	36.2	0	2	270	0.00	30.008 
11:25	40.9	40.9	40.9	84	36.4	0	2	45	0.00	30.008 
11:30	40.9	40.9	40.9	83	36.1	1	4	248	0.00	30.005 
11:35	41.1	41.1	41.1	83	36.3	0	1	248	0.00	30.005 
11:40	41.2	41.2	41.2	83	36.4	0	2	248	0.00	30.005 
11:45	41.5	41.5	41.5	83	36.7	0	3	225	0.00	29.994 
11:50	41.5	41.5	41.5	82	36.4	1	3	225	0.00	29.994 
11:55	41.6	41.6	41.6	82	36.5	0	3	225	0.00	29.994 
12:00	41.8	41.8	41.8	82	36.7	0	5	225	0.00	29.990 
12:05	42.2	42.2	42.2	82	37.1	1	4	68	0.00	29.990 
12:10	42.5	42.5	42.5	81	37.1	0	2	315	0.00	29.990 
12:15	42.8	42.8	42.8	81	37.4	0	2	315	0.00	29.983 
12:20	43.2	43.2	43.2	81	37.8	0	2	270	0.00	29.983 
12:25	43.6	43.6	43.6	81	38.2	0	2	292	0.00	29.983 
12:30	43.8	43.8	43.8	79	37.7	1	3	68	0.00	29.975 
12:35	43.9	43.9	43.9	79	37.8	0	3	68	0.00	29.975 
12:40	44.1	44.1	44.1	79	38.0	0	2	68	0.00	29.975 
12:45	44.3	44.3	44.3	78	37.9	0	2	68	0.00	29.968 
12:50	44.6	44.6	44.6	78	38.2	0	1	68	0.00	29.968 
12:55	45.1	45.1	45.1	77	38.3	1	3	68	0.00	29.968 
13:00	45.2	45.2	45.2	76	38.1	0	3	292	0.00	29.964 
13:05	45.1	45.1	45.1	77	38.3	0	1	292	0.00	29.964 
13:10	44.9	44.9	44.9	77	38.1	0	1	292	0.00	29.964 
13:15	44.9	44.9	44.9	77	38.1	0	2	292	0.00	29.961 
13:20	45.1	45.1	45.1	78	38.7	0	2	0	0.00	29.961 
13:25	45.2	45.2	45.2	77	38.4	1	4	68	0.00	29.961 
13:30	45.2	45.2	45.2	77	38.4	1	4	90	0.00	29.951 
13:35	45.4	45.4	45.4	77	38.6	0	3	90	0.00	29.951 
13:40	45.5	45.5	45.5	77	38.7	1	5	338	0.00	29.951 
13:45	45.8	45.8	45.8	77	39.0	0	1	90	0.00	29.940 
13:50	46.1	46.1	46.1	77	39.3	0	1	90	0.00	29.940 
13:55	46.1	46.1	46.1	76	39.0	0	2	90	0.00	29.940 
14:00	46.2	46.2	46.2	76	39.1	0	2	135	0.00	29.939 
14:05	46.5	46.5	46.5	76	39.3	0	2	248	0.00	29.939 
14:10	46.7	46.7	46.7	76	39.5	0	2	248	0.00	29.939 
14:15	46.8	46.8	46.8	76	39.6	0	3	248	0.00	29.928 
14:20	47.0	47.0	47.0	75	39.5	0	3	248	0.00	29.928 
14:25	47.1	47.1	47.1	75	39.6	1	4	68	0.00	29.928 
14:30	47.0	47.0	47.0	75	39.5	0	3	68	0.00	29.923 
14:35	47.0	47.0	47.0	76	39.8	0	3	68	0.00	29.923 
14:40	47.1	47.1	47.1	76	39.9	0	1	68	0.00	29.923 
14:45	47.1	47.1	47.1	76	39.9	0	3	68	0.00	29.920 
14:50	47.3	47.3	47.3	76	40.1	1	3	90	0.00	29.920 
14:55	47.3	47.3	47.3	76	40.1	0	4	90	0.00	29.920 
15:00	47.3	47.3	47.3	76	40.1	0	2	90	0.00	29.907 
15:05	47.4	47.4	47.4	76	40.2	0	3	90	0.00	29.907 
15:10	47.4	47.4	47.4	76	40.2	0	3	90	0.00	29.907 
15:15	47.6	47.6	47.6	76	40.4	0	1	90	0.00	29.906 
15:20	47.7	47.7	47.7	75	40.2	0	1	90	0.00	29.906 
15:25	47.7	47.7	47.7	75	40.2	0	1	90	0.00	29.906 
15:30	47.9	47.9	47.9	75	40.4	0	1	90	0.00	29.908 
15:35	47.9	47.9	47.9	75	40.4	0	0	---	0.00	29.908 
15:40	48.0	48.0	48.0	75	40.5	0	1	90	0.00	29.908 
15:45	48.0	48.0	48.0	75	40.5	0	1	90	0.00	29.906 
15:50	48.0	48.0	48.0	74	40.1	0	3	90	0.00	29.906 
15:55	48.2	48.2	48.2	74	40.3	0	2	90	0.00	29.906 
16:00	48.2	48.2	48.2	74	40.3	0	2	90	0.00	29.906 
16:05	48.0	48.0	48.0	74	40.1	0	2	90	0.00	29.906 
16:10	48.0	48.0	48.0	74	40.1	0	2	90	0.00	29.906 
16:15	48.0	48.0	48.0	73	39.8	0	3	90	0.00	29.897 
16:20	48.0	48.0	48.0	73	39.8	0	2	90	0.00	29.897 
16:25	48.2	48.2	48.2	73	40.0	0	3	90	0.00	29.897 
16:30	48.0	48.0	48.0	73	39.8	0	1	90	0.00	29.894 
16:35	48.0	48.0	48.0	73	39.8	0	2	90	0.00	29.894 
16:40	48.0	48.0	48.0	73	39.8	0	0	---	0.00	29.894 
16:45	47.9	47.9	47.9	73	39.7	0	3	90	0.00	29.901 
16:50	47.7	47.7	47.7	73	39.5	0	1	90	0.00	29.901 
16:55	47.7	47.7	47.7	73	39.5	0	1	90	0.00	29.901 
17:00	47.6	47.6	47.6	73	39.4	0	0	---	0.00	29.903 
17:05	47.4	47.4	47.4	74	39.5	0	0	---	0.00	29.903 
17:10	47.1	47.1	47.1	74	39.2	0	0	---	0.00	29.903 
17:15	47.0	47.0	47.0	74	39.1	0	0	---	0.00	29.907 
17:20	46.8	46.8	46.8	75	39.3	0	1	90	0.00	29.907 
17:25	46.8	46.8	46.8	75	39.3	0	1	90	0.00	29.907 
17:30	46.8	46.8	46.8	75	39.3	0	1	90	0.00	29.907 
17:35	46.8	46.8	46.8	75	39.3	0	1	90	0.00	29.907 
17:40	46.8	46.8	46.8	75	39.3	0	0	---	0.00	29.907 
17:45	46.8	46.8	46.8	75	39.3	0	0	---	0.00	29.907 
17:50	46.7	46.7	46.7	75	39.2	0	0	---	0.00	29.907 
17:55	46.5	46.5	46.5	76	39.3	0	0	---	0.00	29.907 
18:00	46.4	46.4	46.4	76	39.3	0	0	---	0.00	29.905 
18:05	46.1	46.1	46.1	77	39.3	0	0	---	0.00	29.905 
18:10	46.0	46.0	46.0	77	39.2	0	0	---	0.00	29.905 
18:15	45.8	45.8	45.8	77	39.0	0	0	---	0.00	29.897 
18:20	45.7	45.7	45.7	78	39.2	0	1	90	0.00	29.897 
18:25	45.7	45.7	45.7	78	39.2	0	1	90	0.00	29.897 
18:30	45.7	45.7	45.7	78	39.2	0	1	90	0.00	29.893 
18:35	45.7	45.7	45.7	78	39.2	0	1	90	0.00	29.893 
18:40	45.7	45.7	45.7	78	39.2	0	0	---	0.00	29.893 
18:45	45.5	45.5	45.5	79	39.4	0	1	90	0.00	29.890 
18:50	45.5	45.5	45.5	79	39.4	0	1	90	0.00	29.890 
18:55	45.7	45.7	45.7	79	39.6	0	1	90	0.00	29.890 
19:00	45.7	45.7	45.7	79	39.6	0	2	90	0.00	29.884 
19:05	45.7	45.7	45.7	79	39.6	0	3	112	0.00	29.884 
19:10	45.8	45.8	45.8	78	39.3	0	3	135	0.00	29.884 
19:15	46.1	46.1	46.1	78	39.6	0	2	135	0.00	29.880 
19:20	46.2	46.2	46.2	78	39.7	1	5	90	0.00	29.880 
19:25	46.5	46.5	46.5	77	39.7	1	2	90	0.00	29.880 
19:30	46.8	46.8	46.8	77	40.0	0	3	90	0.00	29.879 
19:35	47.0	47.0	47.0	77	40.2	1	4	90	0.00	29.879 
19:40	47.1	47.1	47.1	76	39.9	1	3	90	0.00	29.879 
19:45	47.1	47.1	47.1	76	39.9	1	3	90	0.00	29.876 
19:50	47.1	47.1	47.1	76	39.9	0	2	90	0.00	29.876 
19:55	47.1	47.1	47.1	76	39.9	0	3	90	0.00	29.876 
20:00	47.0	47.0	47.0	76	39.8	0	2	90	0.00	29.877 
20:05	47.0	47.0	47.0	76	39.8	0	2	90	0.00	29.877 
20:10	46.8	46.8	46.8	76	39.6	0	4	90	0.00	29.877 
20:15	46.7	46.7	46.7	76	39.5	1	3	90	0.00	29.876 
20:20	46.5	46.5	46.5	76	39.3	1	3	90	0.00	29.876 
20:25	46.4	46.4	46.4	76	39.3	0	2	90	0.00	29.876 
20:30	46.4	46.4	46.4	76	39.3	0	2	90	0.00	29.877 
20:35	46.2	46.2	46.2	77	39.4	0	2	90	0.00	29.877 
20:40	46.1	46.1	46.1	77	39.3	0	2	90	0.00	29.877 
20:45	46.0	46.0	46.0	77	39.2	1	3	90	0.00	29.875 
20:50	45.8	45.8	45.8	77	39.0	1	3	90	0.00	29.875 
20:55	45.7	45.7	45.7	77	38.9	0	3	90	0.00	29.875 
21:00	45.7	45.7	45.7	77	38.9	1	3	90	0.00	29.873 
21:05	45.5	45.5	45.5	76	38.4	0	3	90	0.00	29.873 
21:10	45.5	45.5	45.5	76	38.4	0	3	90	0.00	29.873 
21:15	45.4	45.4	45.4	76	38.3	0	2	90	0.00	29.867 
21:20	45.4	45.4	45.4	76	38.3	0	2	90	0.00	29.867 
21:25	45.4	45.4	45.4	76	38.3	0	3	90	0.00	29.867 
21:30	45.2	45.2	45.2	76	38.1	0	3	112	0.00	29.865 
21:35	45.2	45.2	45.2	76	38.1	1	4	112	0.00	29.865 
21:40	45.2	45.2	45.2	76	38.1	1	3	112	0.00	29.865 
21:45	45.4	45.4	45.4	76	38.3	0	4	112	0.00	29.861 
21:50	45.2	45.2	45.2	76	38.1	1	3	90	0.00	29.861 
21:55	45.2	45.2	45.2	76	38.1	0	3	90	0.00	29.861 
22:00	45.2	45.2	45.2	76	38.1	0	3	90	0.00	29.857 
22:05	45.2	45.2	45.2	76	38.1	0	2	68	0.00	29.857 
22:10	45.1	45.1	45.1	76	38.0	0	3	90	0.00	29.857 
22:15	45.1	45.1	45.1	76	38.0	0	2	90	0.00	29.856 
22:20	44.9	44.9	44.9	76	37.8	0	2	90	0.00	29.856 
22:25	44.9	44.9	44.9	76	37.8	0	3	90	0.00	29.856 
22:30	44.9	44.9	44.9	77	38.1	0	2	90	0.00	29.859 
22:35	44.9	44.9	44.9	77	38.1	0	2	68	0.00	29.859 
22:40	45.1	45.1	45.1	77	38.3	0	1	68	0.00	29.859 
22:45	45.1	45.1	45.1	76	38.0	0	2	68	0.00	29.861 
22:50	45.2	45.2	45.2	76	38.1	0	3	68	0.00	29.861 
22:55	45.2	45.2	45.2	76	38.1	0	2	68	0.00	29.861 
23:00	45.4	45.4	45.4	76	38.3	0	3	248	0.00	29.863 
23:05	45.5	45.5	45.5	75	38.0	0	2	248	0.00	29.863 
23:10	45.4	45.4	45.4	75	37.9	0	1	248	0.00	29.863 
23:15	45.4	45.4	45.4	75	37.9	0	2	270	0.00	29.862 
23:20	45.2	45.2	45.2	75	37.8	0	2	270	0.00	29.862 
23:25	45.2	45.2	45.2	75	37.8	0	2	270	0.00	29.862 
23:30	45.1	45.1	45.1	75	37.7	0	1	270	0.00	29.867 
23:35	44.9	44.9	44.9	76	37.8	0	2	270	0.00	29.867 
23:40	44.8	44.8	44.8	76	37.7	0	1	270	0.00	29.867 
23:45	44.6	44.6	44.6	76	37.5	0	1	270	0.00	29.866 
23:50	44.5	44.5	44.5	76	37.4	0	2	270	0.00	29.866 
23:55	44.2	44.2	44.2	77	37.5	0	1	270	0.00	29.866 

CoCoRaHS
IN-AL-39
A2 Web Hosting
Creative Commons License
GoDaddy
search engine by freefind advanced

loaded 2018-11-13 21:22:28 • last modified 2010-11-18 10:43:29
Privacy PolicyDisclaimer
• wx.awcolley.com is powered by PmWiki v.2002016 •
• all content (unless otherwise noted) © 2018 A W Colley